createdAt,value
2022-10-06T00:13:51.799Z,15.8
2022-10-06T00:28:24.461Z,15.5
2022-10-06T00:42:56.423Z,14.9
2022-10-06T00:57:26.965Z,14.3
2022-10-06T01:11:59.505Z,14.3
2022-10-06T01:26:30.115Z,14.1
2022-10-06T01:41:02.095Z,14.5
2022-10-06T01:55:32.685Z,14.4
2022-10-06T02:10:04.258Z,14.3
2022-10-06T02:24:36.479Z,14.2
2022-10-06T02:39:08.646Z,14
2022-10-06T02:53:41.647Z,14
2022-10-06T03:08:14.249Z,14
2022-10-06T03:22:46.261Z,14
2022-10-06T03:37:17.985Z,13.9
2022-10-06T03:51:49.981Z,13.6
2022-10-06T04:06:21.143Z,13.7
2022-10-06T04:20:53.954Z,13.6
2022-10-06T04:35:27.008Z,13.5
2022-10-06T04:49:58.881Z,13.3
2022-10-06T05:04:31.852Z,13.3
2022-10-06T05:19:04.466Z,13.1
2022-10-06T05:33:37.387Z,12.9
2022-10-06T05:48:09.574Z,13.1
2022-10-06T06:02:42.388Z,13
2022-10-06T06:17:13.628Z,12.7
2022-10-06T06:31:46.180Z,12.6
2022-10-06T06:46:18.439Z,12.4
2022-10-06T07:00:52.233Z,12.7
2022-10-06T07:15:24.193Z,12.6
2022-10-06T07:29:57.473Z,12.5
2022-10-06T07:44:30.380Z,12.6
2022-10-06T07:59:02.713Z,12.8
2022-10-06T08:13:37.182Z,13.7
2022-10-06T08:28:19.820Z,15.4
2022-10-06T08:42:55.885Z,15.7
2022-10-06T08:57:25.108Z,15.9
2022-10-06T09:12:04.083Z,17.5
2022-10-06T09:26:38.784Z,18.2
2022-10-06T09:41:09.793Z,17.6
2022-10-06T09:55:34.308Z,16.6
2022-10-06T10:10:06.489Z,16.5
2022-10-06T10:24:39.595Z,16.7
2022-10-06T10:39:14.938Z,17.2
2022-10-06T10:53:46.963Z,17.5
2022-10-06T11:08:18.628Z,17.6
2022-10-06T11:22:51.579Z,18
2022-10-06T11:37:22.902Z,17.3
2022-10-06T11:51:58.934Z,17.2
2022-10-06T12:06:35.888Z,18
2022-10-06T12:21:08.025Z,18.2
2022-10-06T12:35:40.351Z,18.6
2022-10-06T12:50:12.316Z,17.8
2022-10-06T13:04:44.421Z,18
2022-10-06T13:19:18.413Z,18
2022-10-06T13:33:52.024Z,18.5
2022-10-06T13:48:24.785Z,18
2022-10-06T14:02:57.076Z,18
2022-10-06T14:17:28.937Z,17.9
2022-10-06T14:32:01.782Z,18
2022-10-06T14:46:34.533Z,17.8
2022-10-06T15:01:06.304Z,17.8
2022-10-06T15:15:38.299Z,17.8
2022-10-06T15:30:10.242Z,17.6
2022-10-06T15:44:42.294Z,17.6
2022-10-06T15:59:13.899Z,17.3
2022-10-06T16:13:44.617Z,16.8
2022-10-06T16:28:16.348Z,16.4
2022-10-06T16:42:47.653Z,16.2
2022-10-06T16:57:18.752Z,15.4
2022-10-06T17:11:49.393Z,14.9
2022-10-06T17:26:20.240Z,14.3
2022-10-06T17:40:52.209Z,13.7
2022-10-06T17:55:25.443Z,13.1
2022-10-06T18:09:56.516Z,13.2
2022-10-06T18:24:29.150Z,13.1
2022-10-06T18:38:59.112Z,12.6
2022-10-06T18:53:30.359Z,11.7
2022-10-06T19:08:03.744Z,12
2022-10-06T19:22:35.427Z,11.4
2022-10-06T19:37:06.712Z,10.8
2022-10-06T19:51:39.606Z,10.7
2022-10-06T20:06:11.665Z,10
2022-10-06T20:20:43.936Z,10.3
2022-10-06T20:35:15.899Z,10.2
2022-10-06T20:49:47.349Z,10.1
2022-10-06T21:04:18.980Z,9.5
2022-10-06T21:18:51.518Z,9.3
2022-10-06T21:33:22.841Z,9.4
2022-10-06T21:47:53.740Z,9.2
2022-10-06T22:02:26.399Z,8.9
2022-10-06T22:16:58.316Z,8.7
2022-10-06T22:31:31.117Z,8.4
2022-10-06T22:46:02.690Z,8.3
2022-10-06T23:00:34.761Z,8.2
2022-10-06T23:15:07.234Z,8.3
2022-10-06T23:29:38.729Z,8.1
2022-10-06T23:44:10.658Z,8.3
2022-10-06T23:58:41.788Z,7.7
